ěÝzenÝ letovÚho provozu ╚eskÚ republiky
Letiste: LKLN Aktualizace: 27.02.2024 14:25:53  UTC
 METAR LKLN 27.02. 14:30 ...
METAR LKLN 271430Z AUTO 05006KT 360V090 9999 // FEW130 BKN190 09/04 Q1012=